Time;durP1;ratioP1;P1;durP2;ratioP2;P2;SDS_P1;SDS_P2;PMS_P1;PMS_P2;Temp;Humidity;BMP_temperature;BMP_pressure;BME280_temperature;BME280_humidity;BME280_pressure;Samples;Min_cycle;Max_cycle;Signal;HPM_P1;HPM_P2
2021/04/17 00:00:13;;;;;;;7.38;5.03;;;6.80;90.10;;;;;;2102413;28;20028;-70
2021/04/17 00:01:14;;;;;;;9.07;6.10;;;6.80;90.30;;;;;;2097180;28;20032;-70
2021/04/17 00:02:18;;;;;;;7.95;5.60;;;6.80;90.90;;;;;;2095848;28;20050;-70
2021/04/17 00:03:19;;;;;;;9.57;6.00;;;6.80;91.20;;;;;;2096909;28;20525;-70
2021/04/17 00:04:21;;;;;;;6.70;4.78;;;6.80;91.60;;;;;;2097172;28;20375;-69
2021/04/17 00:05:21;;;;;;;5.47;4.97;;;6.80;90.90;;;;;;2096837;28;20031;-69
2021/04/17 00:06:22;;;;;;;6.47;5.40;;;6.80;90.70;;;;;;2103797;28;20024;-70
2021/04/17 00:07:23;;;;;;;8.20;5.13;;;6.80;91.60;;;;;;2104663;28;20028;-69
2021/04/17 00:08:23;;;;;;;7.03;5.45;;;6.80;91.40;;;;;;2105231;28;20036;-70
2021/04/17 00:09:26;;;;;;;8.02;5.45;;;6.80;92.00;;;;;;2105308;28;20032;-69
2021/04/17 00:10:27;;;;;;;5.70;5.10;;;6.80;91.90;;;;;;2102792;28;20027;-70
2021/04/17 00:11:28;;;;;;;6.60;5.50;;;6.80;92.40;;;;;;2097204;28;20030;-70
2021/04/17 00:12:28;;;;;;;6.07;5.47;;;6.80;92.40;;;;;;2096488;28;20425;-70
2021/04/17 00:13:29;;;;;;;8.02;5.80;;;6.80;92.80;;;;;;2097311;28;20028;-70
2021/04/17 00:14:33;;;;;;;7.38;5.80;;;6.80;93.10;;;;;;2103703;28;20052;-69
2021/04/17 00:15:33;;;;;;;8.73;5.50;;;6.80;93.50;;;;;;2101899;28;20025;-72
2021/04/17 00:16:34;;;;;;;9.85;5.53;;;6.80;93.40;;;;;;2097310;28;20024;-70
2021/04/17 00:17:35;;;;;;;9.30;5.40;;;6.80;93.60;;;;;;2096481;28;20441;-69
2021/04/17 00:18:35;;;;;;;7.10;5.88;;;6.80;93.90;;;;;;2096878;28;20031;-70
2021/04/17 00:19:36;;;;;;;7.72;5.72;;;6.80;94.00;;;;;;2104670;28;20407;-70
2021/04/17 00:20:37;;;;;;;9.27;5.88;;;6.90;94.20;;;;;;2105463;28;20024;-69
2021/04/17 00:21:38;;;;;;;6.85;5.55;;;6.80;94.20;;;;;;2105085;28;20027;-69
2021/04/17 00:22:39;;;;;;;9.30;5.72;;;6.80;94.30;;;;;;2099255;28;20063;-69
2021/04/17 00:23:39;;;;;;;6.13;5.45;;;6.80;94.40;;;;;;2099168;28;20035;-69
2021/04/17 00:24:40;;;;;;;9.85;6.22;;;6.80;94.40;;;;;;2104762;28;20028;-70
2021/04/17 00:25:41;;;;;;;6.70;5.47;;;6.90;94.60;;;;;;2100254;28;20464;-69
2021/04/17 00:26:42;;;;;;;7.95;5.57;;;6.90;94.70;;;;;;2097383;28;20132;-69
2021/04/17 00:27:42;;;;;;;7.40;5.07;;;6.90;94.70;;;;;;2105292;28;20036;-69
2021/04/17 00:28:43;;;;;;;8.95;5.68;;;6.90;94.80;;;;;;2105644;28;20119;-70
2021/04/17 00:29:44;;;;;;;7.18;4.85;;;6.90;94.80;;;;;;2105256;28;20369;-69
2021/04/17 00:30:44;;;;;;;8.82;4.90;;;6.90;94.80;;;;;;2097066;28;20025;-69
2021/04/17 00:31:45;;;;;;;7.68;5.18;;;6.90;94.90;;;;;;2096951;28;20024;-69
2021/04/17 00:32:46;;;;;;;7.45;5.28;;;6.90;94.90;;;;;;2096586;28;20031;-69
2021/04/17 00:33:46;;;;;;;8.00;5.60;;;6.90;95.00;;;;;;2096970;28;20494;-69
2021/04/17 00:34:47;;;;;;;7.18;4.93;;;6.90;95.00;;;;;;2096509;28;20024;-69
2021/04/17 00:35:48;;;;;;;9.43;5.68;;;6.90;95.10;;;;;;2096570;28;20024;-70
2021/04/17 00:36:49;;;;;;;5.90;4.93;;;6.90;95.10;;;;;;2096792;28;20025;-69
2021/04/17 00:37:49;;;;;;;6.05;5.00;;;6.90;95.10;;;;;;2096368;28;20896;-69
2021/04/17 00:38:50;;;;;;;6.70;5.45;;;6.90;95.20;;;;;;2095324;28;20029;-69
2021/04/17 00:39:50;;;;;;;6.22;4.55;;;7.00;95.20;;;;;;2097891;28;20059;-70
2021/04/17 00:40:51;;;;;;;7.15;4.60;;;7.00;95.20;;;;;;2098282;28;20079;-70
2021/04/17 00:41:52;;;;;;;7.30;4.80;;;7.00;95.20;;;;;;2097021;28;20028;-70
2021/04/17 00:42:52;;;;;;;7.93;4.45;;;7.00;95.20;;;;;;2096440;28;20027;-70
2021/04/17 00:43:53;;;;;;;5.07;4.55;;;7.00;95.30;;;;;;2096821;28;20101;-69
2021/04/17 00:44:55;;;;;;;7.45;4.50;;;7.00;95.30;;;;;;2096969;28;20099;-69
2021/04/17 00:45:56;;;;;;;6.43;4.75;;;7.00;95.30;;;;;;2096652;28;20029;-69
2021/04/17 00:46:57;;;;;;;5.50;4.88;;;7.00;95.30;;;;;;2103359;28;20046;-69
2021/04/17 00:47:57;;;;;;;6.15;4.50;;;7.00;95.30;;;;;;2102602;28;20027;-69
2021/04/17 00:48:58;;;;;;;5.68;4.55;;;7.00;95.30;;;;;;2097139;28;20029;-69
2021/04/17 00:49:59;;;;;;;6.60;4.50;;;7.00;95.60;;;;;;2096777;28;20095;-69
2021/04/17 00:51:00;;;;;;;8.95;5.00;;;7.00;95.30;;;;;;2098310;28;20096;-69
2021/04/17 00:52:01;;;;;;;5.43;4.18;;;7.00;95.40;;;;;;2097897;28;20024;-69
2021/04/17 00:53:04;;;;;;;7.70;4.57;;;7.00;95.30;;;;;;2100534;28;20028;-70
2021/04/17 00:54:06;;;;;;;5.50;4.60;;;7.00;95.70;;;;;;2096687;28;20021;-69
2021/04/17 00:55:08;;;;;;;5.60;4.45;;;7.10;95.50;;;;;;2103546;28;20027;-69
2021/04/17 00:56:11;;;;;;;6.68;4.63;;;7.10;95.50;;;;;;2096629;28;20028;-69
2021/04/17 00:57:12;;;;;;;8.98;4.40;;;7.10;95.70;;;;;;2096482;28;20021;-69
2021/04/17 00:58:12;;;;;;;5.10;4.50;;;7.10;95.60;;;;;;2102561;28;20472;-69
2021/04/17 00:59:13;;;;;;;7.00;4.65;;;7.10;95.70;;;;;;2104308;28;20050;-69
2021/04/17 01:00:15;;;;;;;6.63;4.78;;;7.10;96.00;;;;;;2099808;28;20560;-69
2021/04/17 01:01:16;;;;;;;6.00;4.35;;;7.10;95.80;;;;;;2100643;28;20024;-70
2021/04/17 01:02:25;;;;;;;5.18;4.32;;;7.10;95.60;;;;;;2098291;28;20017;-70
2021/04/17 01:03:46;;;;;;;6.15;4.20;;;7.10;96.00;;;;;;2088454;28;20048;-70
2021/04/17 01:04:49;;;;;;;5.72;4.35;;;7.10;96.40;;;;;;2094679;28;20035;-70
2021/04/17 01:05:54;;;;;;;4.90;3.92;;;7.10;95.90;;;;;;2098053;28;20119;-70
2021/04/17 01:07:19;;;;;;;6.03;4.10;;;7.10;96.10;;;;;;2099680;28;20078;-70
2021/04/17 01:08:45;;;;;;;5.57;4.05;;;7.10;97.40;;;;;;2091848;28;20495;-70
2021/04/17 01:09:49;;;;;;;6.63;4.05;;;7.10;96.60;;;;;;2103888;28;20116;-70
2021/04/17 01:11:01;;;;;;;4.70;4.30;;;7.00;96.10;;;;;;2099440;28;20048;-70
2021/04/17 01:12:11;;;;;;;6.50;4.57;;;7.00;97.10;;;;;;2096414;28;20474;-69
2021/04/17 01:13:13;;;;;;;9.05;5.00;;;7.00;96.80;;;;;;2095409;28;20035;-69
2021/04/17 01:14:17;;;;;;;7.60;4.82;;;7.10;96.00;;;;;;2099585;28;20024;-69
2021/04/17 01:15:18;;;;;;;11.25;4.80;;;7.10;96.60;;;;;;2104691;28;20024;-69
2021/04/17 01:16:19;;;;;;;5.53;4.13;;;7.10;96.30;;;;;;2105016;28;20456;-69
2021/04/17 01:17:21;;;;;;;5.05;4.38;;;7.00;96.20;;;;;;2102032;28;20054;-69
2021/04/17 01:18:23;;;;;;;5.65;4.40;;;7.10;96.30;;;;;;2096148;28;20024;-69
2021/04/17 01:19:54;;;;;;;5.93;4.70;;;7.10;96.30;;;;;;2096452;28;20039;-70
2021/04/17 01:20:56;;;;;;;6.88;4.50;;;7.10;97.50;;;;;;2096616;28;20029;-69
2021/04/17 01:21:59;;;;;;;7.05;4.30;;;7.10;96.30;;;;;;2096002;28;20111;-69
2021/04/17 01:23:35;;;;;;;11.35;4.97;;;7.10;96.30;;;;;;2103829;28;20036;-69
2021/04/17 01:24:38;;;;;;;7.47;4.75;;;7.00;97.30;;;;;;2104703;28;20516;-69
2021/04/17 01:25:55;;;;;;;7.18;4.95;;;7.10;96.20;;;;;;2104881;28;20031;-69
2021/04/17 01:26:56;;;;;;;6.10;4.57;;;7.10;96.30;;;;;;2097782;28;20032;-69
2021/04/17 01:27:56;;;;;;;6.07;4.35;;;7.10;96.20;;;;;;2104195;28;20654;-69
2021/04/17 01:28:58;;;;;;;8.07;4.78;;;7.10;96.20;;;;;;2104028;28;20024;-69
2021/04/17 01:30:00;;;;;;;6.43;4.43;;;7.10;96.60;;;;;;2102892;28;20030;-69
2021/04/17 01:31:01;;;;;;;6.30;4.85;;;7.10;96.50;;;;;;2088277;28;20056;-69
2021/04/17 01:32:04;;;;;;;6.53;4.70;;;7.10;96.20;;;;;;2091561;28;20021;-69
2021/04/17 01:33:05;;;;;;;7.00;4.97;;;7.10;96.10;;;;;;2095980;28;20017;-69
2021/04/17 01:34:07;;;;;;;5.65;4.65;;;7.10;96.00;;;;;;2103691;28;20024;-69
2021/04/17 01:35:12;;;;;;;5.00;3.67;;;7.10;95.70;;;;;;2099172;28;20020;-69
2021/04/17 01:36:14;;;;;;;4.45;3.50;;;7.10;95.00;;;;;;2091857;28;20025;-69
2021/04/17 01:37:15;;;;;;;6.22;4.55;;;7.10;94.50;;;;;;2101769;28;20031;-69
2021/04/17 01:38:22;;;;;;;5.28;4.07;;;7.00;95.10;;;;;;2098409;28;20039;-69
2021/04/17 01:39:25;;;;;;;5.53;4.05;;;7.10;95.20;;;;;;2104402;28;20066;-69
2021/04/17 01:40:28;;;;;;;6.15;4.32;;;7.00;95.30;;;;;;2102560;28;20069;-69
2021/04/17 01:41:43;;;;;;;3.75;3.45;;;7.00;95.70;;;;;;2096334;28;20025;-69
2021/04/17 01:42:45;;;;;;;6.05;3.33;;;7.00;94.50;;;;;;2094947;28;20039;-69
2021/04/17 01:43:52;;;;;;;5.57;3.65;;;7.00;93.90;;;;;;2095789;28;20086;-69
2021/04/17 01:44:53;;;;;;;5.38;4.38;;;7.00;94.40;;;;;;2096463;28;20024;-69
2021/04/17 01:45:58;;;;;;;6.55;4.13;;;7.00;94.50;;;;;;2096202;28;20059;-69
2021/04/17 01:47:01;;;;;;;6.63;4.53;;;6.90;93.60;;;;;;2096206;28;20035;-69
2021/04/17 01:48:03;;;;;;;3.67;3.28;;;7.00;94.60;;;;;;2095942;28;20115;-70
2021/04/17 01:49:07;;;;;;;5.57;3.53;;;6.90;93.70;;;;;;2094888;28;20065;-69
2021/04/17 01:50:10;;;;;;;5.65;4.25;;;6.90;92.80;;;;;;2101987;28;20547;-69
2021/04/17 01:51:11;;;;;;;4.93;4.00;;;6.90;93.60;;;;;;2089441;28;20036;-70
2021/04/17 01:52:14;;;;;;;5.43;3.67;;;6.90;93.00;;;;;;2087149;28;20040;-69
2021/04/17 01:53:20;;;;;;;4.72;3.30;;;6.90;92.80;;;;;;2099556;28;20020;-69
2021/04/17 01:54:30;;;;;;;7.35;3.83;;;6.80;92.20;;;;;;2104429;28;20023;-69
2021/04/17 01:55:33;;;;;;;4.20;3.80;;;6.80;92.80;;;;;;2104628;28;20024;-69
2021/04/17 01:56:36;;;;;;;5.95;4.28;;;6.80;93.20;;;;;;2099396;28;20035;-69
2021/04/17 01:57:38;;;;;;;5.78;4.30;;;6.80;93.10;;;;;;2096301;28;20028;-69
2021/04/17 01:58:41;;;;;;;5.95;4.13;;;6.70;93.60;;;;;;2104857;28;20024;-69
2021/04/17 01:59:42;;;;;;;4.18;3.80;;;6.70;93.50;;;;;;2100579;28;20367;-69
2021/04/17 02:00:42;;;;;;;5.25;4.05;;;6.70;93.50;;;;;;2096165;28;20086;-69
2021/04/17 02:01:44;;;;;;;4.25;3.60;;;6.70;93.40;;;;;;2097666;28;20029;-69
2021/04/17 02:02:44;;;;;;;4.57;4.07;;;6.70;92.70;;;;;;2099566;28;20368;-69
2021/04/17 02:03:45;;;;;;;7.85;4.55;;;6.70;92.90;;;;;;2105943;28;20031;-69
2021/04/17 02:04:46;;;;;;;4.78;3.70;;;6.70;93.30;;;;;;2105860;28;20024;-69
2021/04/17 02:05:48;;;;;;;5.63;4.18;;;6.60;93.00;;;;;;2100428;28;20028;-69
2021/04/17 02:06:49;;;;;;;5.28;4.13;;;6.60;93.10;;;;;;2097863;28;20020;-69
2021/04/17 02:07:50;;;;;;;4.82;4.18;;;6.60;93.40;;;;;;2097612;28;20043;-69
2021/04/17 02:08:50;;;;;;;5.30;4.60;;;6.60;93.60;;;;;;2097714;28;20427;-69
2021/04/17 02:09:51;;;;;;;4.55;4.05;;;6.60;93.60;;;;;;2097254;28;20383;-69
2021/04/17 02:10:52;;;;;;;6.72;4.15;;;6.50;93.50;;;;;;2097105;28;20032;-69
2021/04/17 02:11:52;;;;;;;4.97;4.07;;;6.50;93.70;;;;;;2097689;28;20387;-69
2021/04/17 02:12:53;;;;;;;5.20;4.20;;;6.50;93.10;;;;;;2097012;28;20024;-69
2021/04/17 02:13:53;;;;;;;6.10;4.00;;;6.50;93.60;;;;;;2093441;28;20029;-69
2021/04/17 02:14:55;;;;;;;4.13;3.72;;;6.50;93.40;;;;;;2097701;28;20029;-69
2021/04/17 02:16:00;;;;;;;5.97;4.50;;;6.40;93.00;;;;;;2101702;28;20630;-69
2021/04/17 02:17:24;;;;;;;4.25;3.85;;;6.40;93.30;;;;;;2103327;28;20035;-69
2021/04/17 02:18:30;;;;;;;4.72;3.75;;;6.40;93.20;;;;;;2089313;28;20107;-69
2021/04/17 02:19:49;;;;;;;4.78;3.95;;;6.30;93.10;;;;;;2096583;28;20024;-69
2021/04/17 02:21:00;;;;;;;4.38;3.63;;;6.30;93.60;;;;;;2097602;28;20029;-69
2021/04/17 02:22:01;;;;;;;4.20;3.55;;;6.20;92.80;;;;;;2097640;28;20028;-69
2021/04/17 02:23:02;;;;;;;7.15;5.32;;;6.20;92.60;;;;;;2096885;28;20017;-69
2021/04/17 02:24:05;;;;;;;5.10;4.10;;;6.20;93.50;;;;;;2101978;28;20056;-69
2021/04/17 02:25:07;;;;;;;5.60;4.07;;;6.20;93.60;;;;;;2104863;28;20032;-69
2021/04/17 02:26:07;;;;;;;5.05;3.83;;;6.10;93.30;;;;;;2096983;28;20028;-69
2021/04/17 02:27:09;;;;;;;5.78;4.18;;;6.10;93.10;;;;;;2097644;28;20158;-69
2021/04/17 02:28:09;;;;;;;7.00;4.63;;;6.10;93.30;;;;;;2097247;28;20418;-69
2021/04/17 02:29:10;;;;;;;5.35;4.13;;;6.10;93.60;;;;;;2097861;28;20028;-69
2021/04/17 02:30:11;;;;;;;7.45;4.57;;;6.10;93.80;;;;;;2096836;28;20028;-69
2021/04/17 02:31:12;;;;;;;4.57;3.88;;;6.00;94.20;;;;;;2097486;28;20036;-69
2021/04/17 02:32:16;;;;;;;4.50;4.05;;;6.00;94.10;;;;;;2096851;28;20029;-69
2021/04/17 02:33:17;;;;;;;4.70;4.07;;;6.00;93.50;;;;;;2097719;28;20024;-69
2021/04/17 02:34:20;;;;;;;4.80;3.90;;;6.00;93.20;;;;;;2097283;28;20182;-69
2021/04/17 02:35:20;;;;;;;6.45;3.90;;;5.90;93.00;;;;;;2097550;28;20016;-69
2021/04/17 02:36:21;;;;;;;6.70;4.90;;;5.90;93.50;;;;;;2097166;28;20094;-69
2021/04/17 02:37:22;;;;;;;5.30;3.60;;;5.90;94.00;;;;;;2097816;28;20017;-69
2021/04/17 02:38:22;;;;;;;5.55;4.70;;;5.90;93.10;;;;;;2097218;28;20038;-69
2021/04/17 02:39:23;;;;;;;7.45;4.60;;;5.80;93.40;;;;;;2097456;28;20033;-69
2021/04/17 02:40:23;;;;;;;6.72;4.40;;;5.80;93.80;;;;;;2100833;28;20449;-69
2021/04/17 02:41:24;;;;;;;8.60;4.53;;;5.80;94.30;;;;;;2096832;28;20047;-69
2021/04/17 02:42:25;;;;;;;5.13;4.13;;;5.80;94.40;;;;;;2096143;28;20490;-69
2021/04/17 02:43:26;;;;;;;11.05;4.63;;;5.70;93.80;;;;;;2097722;28;20036;-69
2021/04/17 02:44:26;;;;;;;4.28;3.88;;;5.70;94.30;;;;;;2096598;28;20027;-69
2021/04/17 02:45:27;;;;;;;5.35;4.70;;;5.70;94.20;;;;;;2096753;28;20028;-69
2021/04/17 02:46:27;;;;;;;5.05;4.55;;;5.70;94.40;;;;;;2099339;28;20375;-69
2021/04/17 02:47:28;;;;;;;5.80;4.65;;;5.70;94.60;;;;;;2105972;28;20024;-69
2021/04/17 02:48:28;;;;;;;3.95;3.55;;;5.60;95.00;;;;;;2105735;28;20028;-69
2021/04/17 02:49:29;;;;;;;5.35;4.85;;;5.60;94.60;;;;;;2099807;28;20036;-69
2021/04/17 02:50:30;;;;;;;4.90;3.88;;;5.60;94.70;;;;;;2103321;28;20498;-69
2021/04/17 02:51:30;;;;;;;6.05;4.38;;;5.60;94.80;;;;;;2099714;28;20028;-69
2021/04/17 02:52:31;;;;;;;4.85;4.45;;;5.50;94.30;;;;;;2096996;28;20017;-69
2021/04/17 02:53:32;;;;;;;6.65;4.68;;;5.50;94.10;;;;;;2097056;28;20100;-69
2021/04/17 02:54:32;;;;;;;6.60;4.82;;;5.50;94.60;;;;;;2099157;28;20740;-69
2021/04/17 02:55:33;;;;;;;8.32;4.45;;;5.50;95.20;;;;;;2105774;28;20051;-69
2021/04/17 02:56:34;;;;;;;5.05;4.55;;;5.40;95.00;;;;;;2104053;28;20035;-69
2021/04/17 02:57:34;;;;;;;6.63;4.28;;;5.40;95.20;;;;;;2105737;28;20027;-69
2021/04/17 02:58:35;;;;;;;5.10;4.13;;;5.40;95.00;;;;;;2105453;28;20104;-69
2021/04/17 02:59:35;;;;;;;6.20;4.90;;;5.40;95.30;;;;;;2099718;28;20029;-69
2021/04/17 03:00:36;;;;;;;6.13;4.55;;;5.40;95.30;;;;;;2097600;28;20083;-68
2021/04/17 03:01:37;;;;;;;4.15;3.75;;;5.40;95.60;;;;;;2096528;28;20032;-68
2021/04/17 03:02:37;;;;;;;5.60;4.30;;;5.40;94.90;;;;;;2096649;28;20082;-69
2021/04/17 03:03:38;;;;;;;5.53;4.07;;;5.30;95.00;;;;;;2098121;28;20039;-69
2021/04/17 03:04:39;;;;;;;7.28;4.63;;;5.40;94.70;;;;;;2103094;28;20557;-69
2021/04/17 03:05:40;;;;;;;6.00;4.28;;;5.30;95.10;;;;;;2102254;28;20047;-69
2021/04/17 03:06:41;;;;;;;5.25;4.47;;;5.30;95.10;;;;;;2097429;28;20159;-69
2021/04/17 03:07:41;;;;;;;6.28;4.75;;;5.30;95.20;;;;;;2089081;28;20172;-69
2021/04/17 03:08:42;;;;;;;5.35;4.70;;;5.20;95.90;;;;;;2097254;28;20788;-69
2021/04/17 03:09:42;;;;;;;7.03;4.60;;;5.20;95.70;;;;;;2095954;28;20103;-69
2021/04/17 03:10:43;;;;;;;9.57;4.82;;;5.20;95.70;;;;;;2099726;28;20028;-69
2021/04/17 03:11:46;;;;;;;5.80;4.35;;;5.20;95.80;;;;;;2097716;28;20043;-69
2021/04/17 03:12:47;;;;;;;5.32;4.82;;;5.20;96.00;;;;;;2097230;28;20028;-69
2021/04/17 03:13:48;;;;;;;6.35;5.32;;;5.20;96.10;;;;;;2097370;28;20494;-69
2021/04/17 03:14:48;;;;;;;8.18;5.63;;;5.10;95.90;;;;;;2097542;28;20027;-69
2021/04/17 03:15:49;;;;;;;8.02;5.00;;;5.10;96.10;;;;;;2101716;28;20028;-69
2021/04/17 03:16:51;;;;;;;4.63;4.20;;;5.10;95.90;;;;;;2106008;28;20733;-69
2021/04/17 03:17:52;;;;;;;6.78;5.07;;;5.10;96.10;;;;;;2106006;28;20027;-69
2021/04/17 03:18:53;;;;;;;5.85;4.90;;;5.10;96.00;;;;;;2105855;28;20031;-69
2021/04/17 03:19:53;;;;;;;6.28;4.65;;;5.10;95.80;;;;;;2097470;28;20039;-69
2021/04/17 03:20:54;;;;;;;6.00;4.80;;;5.00;95.70;;;;;;2097670;28;20032;-69
2021/04/17 03:21:54;;;;;;;5.13;4.63;;;5.00;95.90;;;;;;2097612;28;20021;-69
2021/04/17 03:22:55;;;;;;;6.80;4.72;;;5.00;95.60;;;;;;2096967;28;20062;-69
2021/04/17 03:23:56;;;;;;;5.95;4.20;;;5.00;95.90;;;;;;2097336;28;20032;-69
2021/04/17 03:24:56;;;;;;;5.57;4.22;;;4.90;96.10;;;;;;2097149;28;20036;-69
2021/04/17 03:25:57;;;;;;;5.10;4.60;;;4.90;96.20;;;;;;2104739;28;20375;-69
2021/04/17 03:26:57;;;;;;;5.70;5.10;;;4.90;96.40;;;;;;2105110;28;20077;-69
2021/04/17 03:27:58;;;;;;;5.53;4.80;;;4.90;96.60;;;;;;2097713;28;20103;-69
2021/04/17 03:28:59;;;;;;;7.30;4.80;;;4.90;96.80;;;;;;2097191;28;20518;-69
2021/04/17 03:30:00;;;;;;;6.10;4.90;;;4.90;96.60;;;;;;2097988;28;20064;-69
2021/04/17 03:31:00;;;;;;;5.45;4.55;;;4.80;96.50;;;;;;2106121;28;20051;-69
2021/04/17 03:32:02;;;;;;;6.10;4.10;;;4.80;97.20;;;;;;2105791;28;20036;-69
2021/04/17 03:33:03;;;;;;;5.55;4.80;;;4.80;96.70;;;;;;2105314;28;20405;-69
2021/04/17 03:34:04;;;;;;;5.53;4.55;;;4.80;96.70;;;;;;2104806;28;20020;-68
2021/04/17 03:35:07;;;;;;;6.07;4.75;;;4.80;96.60;;;;;;2096938;28;20100;-68
2021/04/17 03:36:07;;;;;;;6.35;4.32;;;4.70;96.90;;;;;;2096856;28;20605;-68
2021/04/17 03:37:08;;;;;;;6.75;5.03;;;4.70;96.70;;;;;;2098306;28;20505;-68
2021/04/17 03:38:09;;;;;;;8.40;5.03;;;4.70;96.70;;;;;;2096510;28;20038;-69
2021/04/17 03:39:10;;;;;;;6.05;4.70;;;4.70;96.40;;;;;;2096370;28;20020;-69
2021/04/17 03:40:11;;;;;;;5.03;4.35;;;4.70;96.70;;;;;;2101375;28;20020;-69
2021/04/17 03:41:12;;;;;;;7.78;4.65;;;4.70;96.90;;;;;;2105811;28;20459;-69
2021/04/17 03:42:12;;;;;;;5.80;4.72;;;4.70;97.10;;;;;;2104878;28;20360;-69
2021/04/17 03:43:13;;;;;;;5.93;4.63;;;4.70;97.40;;;;;;2105361;28;20035;-69
2021/04/17 03:44:14;;;;;;;6.05;4.38;;;4.60;97.30;;;;;;2104130;28;20027;-69
2021/04/17 03:45:16;;;;;;;7.30;5.10;;;4.60;97.10;;;;;;2096964;28;20024;-69
2021/04/17 03:46:17;;;;;;;7.50;4.78;;;4.60;97.30;;;;;;2096894;28;20040;-68
2021/04/17 03:47:17;;;;;;;8.65;5.03;;;4.60;97.10;;;;;;2096374;28;20122;-69
2021/04/17 03:48:18;;;;;;;6.78;4.47;;;4.60;97.00;;;;;;2098195;28;20034;-68
2021/04/17 03:49:18;;;;;;;6.65;4.38;;;4.60;97.10;;;;;;2096795;28;20066;-68
2021/04/17 03:50:19;;;;;;;5.63;4.20;;;4.60;97.20;;;;;;2099780;28;20112;-69
2021/04/17 03:51:20;;;;;;;6.32;4.43;;;4.50;97.20;;;;;;2097364;28;20074;-68
2021/04/17 03:52:20;;;;;;;6.68;4.70;;;4.50;97.40;;;;;;2096914;28;20051;-68
2021/04/17 03:53:21;;;;;;;6.72;5.13;;;4.50;97.30;;;;;;2097040;28;20033;-69
2021/04/17 03:54:21;;;;;;;5.28;4.68;;;4.50;97.50;;;;;;2096857;28;20429;-69
2021/04/17 03:55:22;;;;;;;7.28;5.18;;;4.50;97.30;;;;;;2100912;28;20036;-69
2021/04/17 03:56:23;;;;;;;8.10;5.15;;;4.50;97.30;;;;;;2100701;28;20024;-69
2021/04/17 03:57:23;;;;;;;7.50;5.72;;;4.40;97.70;;;;;;2101395;28;20023;-68
2021/04/17 03:58:24;;;;;;;5.78;5.03;;;4.40;97.90;;;;;;2103356;28;20024;-68
2021/04/17 03:59:24;;;;;;;6.93;4.53;;;4.40;97.90;;;;;;2102222;28;20033;-68
2021/04/17 04:00:25;;;;;;;4.88;4.22;;;4.40;98.00;;;;;;2103163;28;20028;-68
2021/04/17 04:01:26;;;;;;;5.95;4.50;;;4.40;97.60;;;;;;2102632;28;20410;-69
2021/04/17 04:02:26;;;;;;;6.57;4.90;;;4.40;97.50;;;;;;2105196;28;20028;-68
2021/04/17 04:03:27;;;;;;;7.63;4.90;;;4.40;97.60;;;;;;2105927;28;20024;-68
2021/04/17 04:04:27;;;;;;;6.05;4.60;;;4.30;97.80;;;;;;2097635;28;20025;-68
2021/04/17 04:05:28;;;;;;;6.35;5.03;;;4.30;98.20;;;;;;2097099;28;20491;-68
2021/04/17 04:06:28;;;;;;;5.40;4.55;;;4.30;98.40;;;;;;2103233;28;20055;-68
2021/04/17 04:07:29;;;;;;;6.88;4.65;;;4.30;98.60;;;;;;2105247;28;20028;-68
2021/04/17 04:08:30;;;;;;;6.78;4.90;;;4.30;98.20;;;;;;2104779;28;20024;-68
2021/04/17 04:09:31;;;;;;;5.70;5.20;;;4.30;97.80;;;;;;2099781;28;20060;-68
2021/04/17 04:10:31;;;;;;;6.45;5.13;;;4.30;98.20;;;;;;2096922;28;20032;-68
2021/04/17 04:11:32;;;;;;;6.55;4.65;;;4.30;98.30;;;;;;2105552;28;20017;-68
2021/04/17 04:12:33;;;;;;;4.88;4.38;;;4.20;97.90;;;;;;2104542;28;20032;-68
2021/04/17 04:13:33;;;;;;;7.30;4.90;;;4.20;97.50;;;;;;2105221;28;20020;-68
2021/04/17 04:14:34;;;;;;;6.38;4.68;;;4.20;97.70;;;;;;2102002;28;20016;-68
2021/04/17 04:15:35;;;;;;;6.38;4.63;;;4.20;97.50;;;;;;2097316;28;20503;-69
2021/04/17 04:16:35;;;;;;;5.75;5.15;;;4.20;97.60;;;;;;2096817;28;20486;-68
2021/04/17 04:17:36;;;;;;;7.43;4.97;;;4.20;97.90;;;;;;2101499;28;20037;-69
2021/04/17 04:18:37;;;;;;;7.28;4.47;;;4.10;97.90;;;;;;2105127;28;20116;-69
2021/04/17 04:19:37;;;;;;;4.75;4.25;;;4.20;97.80;;;;;;2101535;28;20031;-69
2021/04/17 04:20:38;;;;;;;5.25;4.75;;;4.10;98.10;;;;;;2096537;28;20533;-68
2021/04/17 04:21:38;;;;;;;6.25;4.80;;;4.10;98.30;;;;;;2097326;28;20028;-69
2021/04/17 04:22:40;;;;;;;7.93;4.60;;;4.10;98.40;;;;;;2096193;28;20066;-69
2021/04/17 04:23:40;;;;;;;5.57;4.82;;;4.10;97.90;;;;;;2096965;28;20177;-68
2021/04/17 04:24:41;;;;;;;7.45;5.38;;;4.10;98.10;;;;;;2096718;28;20024;-69
2021/04/17 04:25:41;;;;;;;13.52;6.35;;;4.10;98.70;;;;;;2097080;28;20525;-69
2021/04/17 04:26:42;;;;;;;6.00;4.60;;;4.00;98.60;;;;;;2096382;28;20028;-69
2021/04/17 04:27:42;;;;;;;9.13;5.07;;;4.00;98.60;;;;;;2096360;28;20123;-68
2021/04/17 04:28:43;;;;;;;5.32;4.82;;;4.00;98.70;;;;;;2096731;28;20032;-68
2021/04/17 04:29:44;;;;;;;6.63;5.10;;;4.00;98.60;;;;;;2096038;28;20042;-69
2021/04/17 04:30:45;;;;;;;7.10;4.60;;;4.00;98.80;;;;;;2096796;28;20101;-68
2021/04/17 04:31:46;;;;;;;6.47;4.88;;;4.00;98.60;;;;;;2097145;28;20104;-69
2021/04/17 04:32:46;;;;;;;5.13;4.68;;;4.00;98.70;;;;;;2095712;28;20484;-68
2021/04/17 04:33:47;;;;;;;4.47;4.07;;;4.00;98.30;;;;;;2096381;28;20028;-68
2021/04/17 04:34:47;;;;;;;7.43;5.03;;;4.00;98.30;;;;;;2096655;28;20124;-68
2021/04/17 04:35:49;;;;;;;5.53;5.00;;;4.00;98.70;;;;;;2093657;28;20375;-68
2021/04/17 04:36:49;;;;;;;9.35;4.95;;;4.00;98.20;;;;;;2100194;28;20487;-69
2021/04/17 04:37:50;;;;;;;5.95;4.88;;;4.00;98.60;;;;;;2105484;28;20385;-69
2021/04/17 04:38:50;;;;;;;5.75;4.90;;;4.00;98.60;;;;;;2098426;28;20052;-68
2021/04/17 04:39:51;;;;;;;6.00;4.65;;;3.90;98.80;;;;;;2098152;28;20108;-68
2021/04/17 04:40:52;;;;;;;4.95;4.45;;;3.90;99.20;;;;;;2105221;28;20034;-69
2021/04/17 04:41:52;;;;;;;6.47;4.60;;;4.00;98.90;;;;;;2104940;28;20032;-69
2021/04/17 04:42:53;;;;;;;6.00;5.40;;;3.90;99.00;;;;;;2104274;28;20036;-68
2021/04/17 04:43:53;;;;;;;7.10;4.65;;;3.90;99.40;;;;;;2105156;28;20031;-69
2021/04/17 04:44:54;;;;;;;7.90;4.95;;;3.90;99.30;;;;;;2099134;28;20036;-69
2021/04/17 04:45:54;;;;;;;6.28;5.60;;;4.00;99.30;;;;;;2096573;28;20044;-68
2021/04/17 04:46:55;;;;;;;8.32;4.85;;;3.90;99.50;;;;;;2096890;28;20562;-68
2021/04/17 04:47:56;;;;;;;6.80;5.47;;;4.00;99.50;;;;;;2097033;28;20029;-68
2021/04/17 04:48:57;;;;;;;8.40;5.30;;;3.90;99.70;;;;;;2098055;28;20037;-68
2021/04/17 04:49:57;;;;;;;6.57;5.05;;;3.90;99.80;;;;;;2102928;28;20038;-69
2021/04/17 04:50:58;;;;;;;7.15;5.22;;;3.90;99.70;;;;;;2091484;28;20044;-69
2021/04/17 04:51:58;;;;;;;6.22;5.30;;;3.90;99.30;;;;;;2096435;28;20016;-69
2021/04/17 04:52:59;;;;;;;6.55;5.15;;;3.90;99.40;;;;;;2099366;28;20032;-68
2021/04/17 04:54:00;;;;;;;7.63;5.65;;;3.90;99.70;;;;;;2105200;28;20054;-68
2021/04/17 04:55:01;;;;;;;6.38;5.60;;;3.90;99.80;;;;;;2105232;28;20058;-69
2021/04/17 04:56:01;;;;;;;6.80;5.63;;;4.00;99.90;;;;;;2103886;28;20510;-68
2021/04/17 04:57:02;;;;;;;5.53;4.95;;;3.90;99.90;;;;;;2096567;28;20104;-68
2021/04/17 04:58:03;;;;;;;7.70;5.28;;;3.90;99.90;;;;;;2096841;28;20021;-69
2021/04/17 04:59:03;;;;;;;9.10;5.85;;;4.00;99.90;;;;;;2096803;28;20025;-69
2021/04/17 05:00:06;;;;;;;7.05;5.57;;;4.00;99.90;;;;;;2096175;28;20028;-69
2021/04/17 05:01:07;;;;;;;6.30;4.93;;;4.00;99.90;;;;;;2096625;28;20044;-68
2021/04/17 05:02:07;;;;;;;7.97;5.63;;;4.00;99.70;;;;;;2103877;28;20020;-69
2021/04/17 05:03:08;;;;;;;8.20;5.85;;;4.00;99.60;;;;;;2104387;28;20020;-69
2021/04/17 05:04:09;;;;;;;7.13;5.80;;;4.00;99.90;;;;;;2096643;28;20032;-69
2021/04/17 05:05:10;;;;;;;7.82;5.55;;;4.00;99.90;;;;;;2096291;28;20024;-68
2021/04/17 05:06:10;;;;;;;7.72;5.55;;;4.00;99.90;;;;;;2096360;28;20035;-69
2021/04/17 05:07:11;;;;;;;7.97;5.45;;;4.00;99.90;;;;;;2096743;28;20459;-69
2021/04/17 05:08:12;;;;;;;7.18;5.13;;;4.00;99.90;;;;;;2096665;28;20029;-69
2021/04/17 05:09:12;;;;;;;6.25;5.07;;;4.00;99.90;;;;;;2093169;28;20025;-69
2021/04/17 05:10:13;;;;;;;6.50;4.82;;;4.00;99.90;;;;;;2091285;28;20036;-69
2021/04/17 05:11:13;;;;;;;6.80;5.18;;;4.00;99.90;;;;;;2095462;28;20020;-69
2021/04/17 05:12:14;;;;;;;6.22;4.70;;;4.00;99.90;;;;;;2088861;28;20025;-68
2021/04/17 05:13:15;;;;;;;7.80;5.53;;;4.00;99.90;;;;;;2095864;28;20136;-69
2021/04/17 05:14:15;;;;;;;7.75;5.60;;;4.00;99.90;;;;;;2095987;28;20062;-69
2021/04/17 05:15:16;;;;;;;5.65;4.93;;;4.00;99.90;;;;;;2092276;28;20365;-69
2021/04/17 05:16:16;;;;;;;6.72;5.40;;;4.00;99.90;;;;;;2090275;28;20024;-69
2021/04/17 05:17:17;;;;;;;9.85;5.20;;;4.00;99.90;;;;;;2090909;28;20575;-69
2021/04/17 05:18:17;;;;;;;7.43;5.80;;;4.00;99.90;;;;;;2088925;28;20025;-69
2021/04/17 05:19:18;;;;;;;7.60;5.07;;;4.00;99.90;;;;;;2093501;28;20024;-68
2021/04/17 05:20:19;;;;;;;6.15;5.55;;;4.10;99.90;;;;;;2097098;28;20052;-68
2021/04/17 05:21:19;;;;;;;6.50;5.30;;;4.00;99.90;;;;;;2103901;28;20020;-68
2021/04/17 05:22:20;;;;;;;6.47;5.25;;;4.10;99.90;;;;;;2099834;28;20036;-68
2021/04/17 05:23:20;;;;;;;8.18;5.57;;;4.10;99.90;;;;;;2104780;28;20035;-68
2021/04/17 05:24:21;;;;;;;6.15;4.57;;;4.10;99.90;;;;;;2096932;28;20029;-68
2021/04/17 05:25:21;;;;;;;6.97;5.28;;;4.10;99.90;;;;;;2086917;28;20087;-68
2021/04/17 05:26:22;;;;;;;7.75;5.68;;;4.10;99.90;;;;;;2091629;28;20523;-69